Airfield :
LOGIN :

Register | Disclaimer

   EN    FR    IT 

 










Legend :    VFR   Marginal VFR   IFR   Intensive IFR   Very Intensive IFR
Visi :
Ceiling :
>= 8 km
>= 3000ft
5 to 8 km
1000 to 3000 ft
1500m to 5 km
500 to 1000 ft
800 to 1500m
200 to 500 ft
< 800m
< 200 ft
Symbols :   Thunderstorms  Fog  Heavy snow  Heavy precipitations  Wind > 20 kt
SIGMETs :     Misc.  Thunderstorms  Icing  Turbulence  Mountain Waves  Volcanic Ashes






- Airport Elevation : 72 ft
- IATA code : UDE


EHVK - Volkel Airbase

CURRENT METAR :
  • 301925Z AUTO 22014KT 190V260 5000 BR OVC004 05/04 Q1015 REDZ YLO

EXPIRED METARs :
  • 301906Z AUTO 22015KT 4400 BR BKN004 OVC005 05/04 Q1016 YLO
  • 301855Z AUTO 22014KT 200V260 3300 -DZ BKN004 OVC005 04/04 Q1016 YLO
  • 301841Z AUTO 22014KT 190V250 3400 -RA OVC004 04/04 Q1016 YLO
  • 301825Z AUTO 21013KT 180V240 6000 BR BKN004 OVC005 04/04 Q1016 REDZ YLO
  • 301805Z AUTO 21012KT 170V250 5000 DZRA OVC004 04/04 Q1017 YLO
  • 301755Z AUTO 21011KT 180V240 4700 -RA BKN004 OVC005 04/03 Q1017 RERA REDZ YLO
  • 301746Z AUTO 21011KT 180V240 4200 -SHRA SCT004 BKN005 OVC006 04/03 Q1017 YLO
  • 301734Z AUTO 21012KT 180V250 3400 R24R/P3000N +DZRA OVC004 04/03 Q1017 YLO TEMPO 1300 BR DZ SCT002 BKN003
  • 301725Z AUTO 21011KT 170V240 3900 -SHRA BKN004 OVC005 04/03 Q1017 REDZ YLO TEMPO 1300 BR DZ SCT002 BKN003
  • 301655Z AUTO 22013KT 190V250 2800 R24R/2800D -RA BKN004 FEW015CB 04/03 Q1018 RERA REDZ YLO TEMPO 1300 BR DZ SCT002 BKN003

TAF TAF EHVK
Valid from the 30 at 18:00 until the 01 at 06:00 UTC


301728Z 3018/0106 21013KT 3500 -DZ BR BKN004 OVC006
TEMPO 3018/3024 2000 DZ SCT002 OVC003
BECMG 3023/0101 28010KT 9999 NSW BKN020
TEMPO 0100/0118 4500 SHRA SCT015CB BKN020



MET'MAP, your aeronautical weather chart ! - Copyright ORBIFLY December 2007 - Disclaimer

ORBIFLY MET'MAP TEAM :

Programming & Development : Alexandra Zaïnal
Concept & original design : Baudouin d'Aumeries
Assistance for programming : Marc-Olivier Méhu
Technical & hardware support : Manuel Goepfert

Contact : metmap@orbifly.com




SOURCES & CREDITS :

   NOAA